createdAt,value
2022-10-29T00:00:08.087Z,24.30
2022-10-29T00:02:34.745Z,29.58
2022-10-29T00:05:01.487Z,30.17
2022-10-29T00:07:28.332Z,36.42
2022-10-29T00:09:55.075Z,23.45
2022-10-29T00:12:21.847Z,25.23
2022-10-29T00:14:48.561Z,21.92
2022-10-29T00:17:18.027Z,23.42
2022-10-29T00:19:44.756Z,15.85
2022-10-29T00:22:11.433Z,9.48
2022-10-29T00:24:38.103Z,14.20
2022-10-29T00:27:04.923Z,13.18
2022-10-29T00:29:31.686Z,10.63
2022-10-29T00:32:00.912Z,14.77
2022-10-29T00:34:27.656Z,12.57
2022-10-29T00:36:54.525Z,18.13
2022-10-29T00:39:21.245Z,12.50
2022-10-29T00:41:50.443Z,15.15
2022-10-29T00:44:25.375Z,16.00
2022-10-29T00:47:31.764Z,11.02
2022-10-29T00:50:03.490Z,14.57
2022-10-29T00:52:33.434Z,19.67
2022-10-29T00:55:07.172Z,17.42
2022-10-29T00:57:40.206Z,11.60
2022-10-29T01:00:07.879Z,13.23
2022-10-29T01:02:40.847Z,8.98
2022-10-29T01:05:11.484Z,7.15
2022-10-29T01:07:38.395Z,14.23
2022-10-29T01:10:05.532Z,5.80
2022-10-29T01:12:43.545Z,12.43
2022-10-29T01:15:34.948Z,11.98
2022-10-29T01:18:08.583Z,11.75
2022-10-29T01:21:05.541Z,8.88
2022-10-29T01:23:50.727Z,20.88
2022-10-29T01:26:29.241Z,17.30
2022-10-29T01:29:12.731Z,18.38
2022-10-29T01:31:44.739Z,20.48
2022-10-29T01:34:25.637Z,21.80
2022-10-29T01:37:30.396Z,17.80
2022-10-29T01:40:11.795Z,15.32
2022-10-29T01:42:43.853Z,17.10
2022-10-29T01:45:19.463Z,15.77
2022-10-29T01:47:54.514Z,16.17
2022-10-29T01:50:24.310Z,18.80
2022-10-29T01:52:53.060Z,18.95
2022-10-29T01:55:23.401Z,16.83
2022-10-29T01:57:50.212Z,12.55
2022-10-29T02:00:19.377Z,10.63
2022-10-29T02:03:09.102Z,12.07
2022-10-29T02:06:07.280Z,10.93
2022-10-29T02:08:47.131Z,12.43
2022-10-29T02:11:25.204Z,10.85
2022-10-29T02:14:06.200Z,6.50
2022-10-29T02:16:34.381Z,4.23
2022-10-29T02:19:01.501Z,10.70
2022-10-29T02:21:28.254Z,4.88
2022-10-29T02:23:54.995Z,6.43
2022-10-29T02:26:23.983Z,4.93
2022-10-29T02:28:50.702Z,7.55
2022-10-29T02:31:19.672Z,12.20
2022-10-29T02:33:46.348Z,10.05
2022-10-29T02:36:15.441Z,14.90
2022-10-29T02:38:42.176Z,25.70
2022-10-29T02:41:08.890Z,29.05
2022-10-29T02:43:35.815Z,18.73
2022-10-29T02:46:19.624Z,22.45
2022-10-29T02:48:46.752Z,22.23
2022-10-29T02:51:14.374Z,24.55
2022-10-29T02:53:43.553Z,29.73
2022-10-29T02:56:10.603Z,27.52
2022-10-29T02:58:38.838Z,38.10
2022-10-29T03:01:06.996Z,34.47
2022-10-29T03:03:33.741Z,26.33
2022-10-29T03:06:00.498Z,34.78
2022-10-29T03:08:27.255Z,38.72
2022-10-29T03:10:55.452Z,31.65
2022-10-29T03:13:22.144Z,35.67
2022-10-29T03:15:48.817Z,32.00
2022-10-29T03:18:18.140Z,34.63
2022-10-29T03:20:45.540Z,33.17
2022-10-29T03:23:12.309Z,34.17
2022-10-29T03:25:39.005Z,33.67
2022-10-29T03:28:05.925Z,34.97
2022-10-29T03:30:33.197Z,29.00
2022-10-29T03:33:00.878Z,34.30
2022-10-29T03:35:27.709Z,30.75
2022-10-29T03:37:55.561Z,31.13
2022-10-29T03:40:22.267Z,29.50
2022-10-29T03:42:51.227Z,30.40
2022-10-29T03:45:20.186Z,31.00
2022-10-29T03:47:47.052Z,32.30
2022-10-29T03:50:14.005Z,28.63
2022-10-29T03:52:40.725Z,26.17
2022-10-29T03:55:08.004Z,23.77
2022-10-29T03:57:34.914Z,30.08
2022-10-29T04:00:04.854Z,29.33
2022-10-29T04:02:31.744Z,25.50
2022-10-29T04:04:58.508Z,29.98
2022-10-29T04:07:25.239Z,23.63
2022-10-29T04:09:54.629Z,23.75
2022-10-29T04:12:21.361Z,26.67
2022-10-29T04:17:18.140Z,29.40
2022-10-29T04:19:44.891Z,27.00
2022-10-29T04:28:41.812Z,26.45
2022-10-29T04:30:36.325Z,20.75
2022-10-29T04:33:03.105Z,21.63
2022-10-29T04:35:29.844Z,19.75
2022-10-29T04:37:57.675Z,18.95
2022-10-29T04:40:24.716Z,21.42
2022-10-29T04:42:51.819Z,18.38
2022-10-29T04:45:18.923Z,24.83
2022-10-29T04:47:48.519Z,21.30
2022-10-29T04:50:15.265Z,18.13
2022-10-29T04:52:41.982Z,16.83
2022-10-29T04:55:09.045Z,20.70
2022-10-29T04:57:35.818Z,23.08
2022-10-29T05:00:05.198Z,18.75
2022-10-29T05:02:31.891Z,27.85
2022-10-29T05:04:58.636Z,20.55
2022-10-29T05:07:25.476Z,21.42
2022-10-29T05:09:52.150Z,19.60
2022-10-29T05:12:18.955Z,22.15
2022-10-29T05:14:45.670Z,17.10
2022-10-29T05:17:14.669Z,17.42
2022-10-29T05:19:43.588Z,18.95
2022-10-29T05:22:12.533Z,18.20
2022-10-29T05:24:39.404Z,22.60
2022-10-29T05:27:07.165Z,22.75
2022-10-29T05:29:33.923Z,21.17
2022-10-29T05:32:03.565Z,26.83
2022-10-29T05:34:30.303Z,21.63
2022-10-29T05:36:57.201Z,23.58
2022-10-29T05:39:23.963Z,26.90
2022-10-29T05:41:50.690Z,22.23
2022-10-29T05:44:17.364Z,23.55
2022-10-29T05:46:48.002Z,29.13
2022-10-29T05:49:14.676Z,20.27
2022-10-29T05:51:41.375Z,21.42
2022-10-29T05:54:08.067Z,25.90
2022-10-29T05:56:34.800Z,23.35
2022-10-29T05:59:01.552Z,25.55
2022-10-29T06:01:28.286Z,19.20
2022-10-29T06:03:55.031Z,26.85
2022-10-29T06:06:21.831Z,23.70
2022-10-29T06:08:48.542Z,28.50
2022-10-29T06:11:15.235Z,25.75
2022-10-29T06:13:41.956Z,25.92
2022-10-29T06:16:08.797Z,24.15
2022-10-29T06:18:35.550Z,22.25
2022-10-29T06:21:02.317Z,23.65
2022-10-29T06:23:32.311Z,31.85
2022-10-29T06:26:00.870Z,31.98
2022-10-29T06:28:33.456Z,25.65
2022-10-29T06:31:01.775Z,29.83
2022-10-29T06:33:28.546Z,27.05
2022-10-29T06:35:59.621Z,24.80
2022-10-29T06:38:26.377Z,31.75
2022-10-29T06:40:54.034Z,30.65
2022-10-29T06:43:23.201Z,30.27
2022-10-29T06:45:50.218Z,32.58
2022-10-29T06:48:21.651Z,30.35
2022-10-29T06:50:50.328Z,31.80
2022-10-29T06:53:19.323Z,34.20
2022-10-29T06:55:46.173Z,30.60
2022-10-29T06:58:18.235Z,31.05
2022-10-29T07:00:45.700Z,31.17
2022-10-29T07:03:14.076Z,31.45
2022-10-29T07:05:40.839Z,31.17
2022-10-29T07:08:10.323Z,28.80
2022-10-29T07:10:37.588Z,33.97
2022-10-29T07:13:04.471Z,27.27
2022-10-29T07:15:31.736Z,32.40
2022-10-29T07:18:07.391Z,38.15
2022-10-29T07:20:37.366Z,37.88
2022-10-29T07:23:04.379Z,32.33
2022-10-29T07:25:32.359Z,36.53
2022-10-29T07:28:14.252Z,32.05
2022-10-29T07:30:41.783Z,37.50
2022-10-29T07:33:08.836Z,32.55
2022-10-29T07:35:35.618Z,35.55
2022-10-29T07:38:08.837Z,42.45
2022-10-29T07:40:38.841Z,38.92
2022-10-29T07:43:08.617Z,40.25
2022-10-29T07:45:37.577Z,43.70
2022-10-29T07:48:09.438Z,42.80
2022-10-29T07:50:37.836Z,45.65
2022-10-29T07:53:06.630Z,48.80
2022-10-29T07:55:33.547Z,47.08
2022-10-29T07:58:02.599Z,39.97
2022-10-29T08:00:35.488Z,45.45
2022-10-29T08:03:02.454Z,42.38
2022-10-29T08:05:32.609Z,36.05
2022-10-29T08:08:00.319Z,39.78
2022-10-29T08:10:30.631Z,44.05
2022-10-29T08:13:00.393Z,50.85
2022-10-29T08:15:28.939Z,41.22
2022-10-29T08:17:56.353Z,41.95
2022-10-29T08:20:25.590Z,38.05
2022-10-29T08:22:53.468Z,45.38
2022-10-29T08:25:26.117Z,46.08
2022-10-29T08:28:04.647Z,42.22
2022-10-29T08:30:32.439Z,42.53
2022-10-29T08:33:01.840Z,42.03
2022-10-29T08:35:32.799Z,45.40
2022-10-29T08:37:59.869Z,49.97
2022-10-29T08:40:34.049Z,45.65
2022-10-29T08:43:11.578Z,41.00
2022-10-29T08:45:50.804Z,41.78
2022-10-29T08:48:46.402Z,37.42
2022-10-29T08:51:42.719Z,42.70
2022-10-29T08:54:30.161Z,46.83
2022-10-29T08:57:09.227Z,44.88
2022-10-29T08:59:42.088Z,36.58
2022-10-29T09:02:20.736Z,40.40
2022-10-29T09:04:47.518Z,41.35
2022-10-29T09:07:33.771Z,38.38
2022-10-29T09:10:23.358Z,41.72
2022-10-29T09:13:22.129Z,42.88
2022-10-29T09:16:07.077Z,40.25
2022-10-29T09:18:48.657Z,42.38
2022-10-29T09:21:28.715Z,40.92
2022-10-29T09:24:19.201Z,39.13
2022-10-29T09:26:51.292Z,37.40
2022-10-29T09:29:24.114Z,38.85
2022-10-29T09:31:59.806Z,35.55
2022-10-29T09:34:35.845Z,38.30
2022-10-29T09:37:06.890Z,40.60
2022-10-29T09:39:41.322Z,37.10
2022-10-29T09:42:20.054Z,33.40
2022-10-29T09:44:56.224Z,32.75
2022-10-29T09:47:39.077Z,38.58
2022-10-29T09:50:16.926Z,28.52
2022-10-29T09:52:45.218Z,34.58
2022-10-29T09:55:20.188Z,35.65
2022-10-29T09:57:50.050Z,30.88
2022-10-29T10:00:26.246Z,32.28
2022-10-29T10:03:14.710Z,30.35
2022-10-29T10:06:02.827Z,27.20
2022-10-29T10:08:33.263Z,29.50
2022-10-29T10:11:06.989Z,22.80
2022-10-29T10:13:51.142Z,25.05
2022-10-29T10:16:25.113Z,27.60
2022-10-29T10:18:51.894Z,21.65
2022-10-29T10:21:32.946Z,23.30
2022-10-29T10:24:03.279Z,26.67
2022-10-29T10:26:43.457Z,20.25
2022-10-29T10:29:20.915Z,22.13
2022-10-29T10:32:18.806Z,19.48
2022-10-29T10:34:45.502Z,17.55
2022-10-29T10:37:19.397Z,23.17
2022-10-29T10:39:50.547Z,24.35
2022-10-29T10:42:39.430Z,42.13
2022-10-29T10:45:16.287Z,18.77
2022-10-29T10:47:47.627Z,24.02
2022-10-29T10:53:22.310Z,22.40
2022-10-29T10:55:57.882Z,22.02
2022-10-29T10:58:40.110Z,23.52
2022-10-29T11:01:10.424Z,20.25
2022-10-29T11:03:40.856Z,20.80
2022-10-29T11:06:14.898Z,23.45
2022-10-29T11:08:58.421Z,21.98
2022-10-29T11:11:48.408Z,21.15
2022-10-29T11:14:27.944Z,24.27
2022-10-29T11:16:58.368Z,23.03
2022-10-29T11:19:49.050Z,19.95
2022-10-29T11:22:24.645Z,23.40
2022-10-29T11:25:06.091Z,18.38
2022-10-29T11:30:03.460Z,24.15
2022-10-29T11:32:33.518Z,17.20
2022-10-29T11:35:12.454Z,18.85
2022-10-29T11:37:51.336Z,19.75
2022-10-29T11:40:18.079Z,22.80
2022-10-29T11:42:48.036Z,19.88
2022-10-29T11:45:20.350Z,20.75
2022-10-29T11:48:05.752Z,19.92
2022-10-29T11:50:56.089Z,19.13
2022-10-29T11:54:16.342Z,21.98
2022-10-29T11:56:59.086Z,23.27
2022-10-29T11:59:59.406Z,22.25
2022-10-29T12:02:43.902Z,24.60
2022-10-29T12:05:22.755Z,25.58
2022-10-29T12:08:27.163Z,18.38
2022-10-29T12:11:18.498Z,22.27
2022-10-29T12:14:26.335Z,15.35
2022-10-29T12:17:01.430Z,19.58
2022-10-29T12:19:42.315Z,22.88
2022-10-29T12:22:24.520Z,21.70
2022-10-29T12:25:07.266Z,21.00
2022-10-29T12:27:34.065Z,18.95
2022-10-29T12:30:03.226Z,20.58
2022-10-29T12:32:58.078Z,19.38
2022-10-29T12:35:29.092Z,17.50
2022-10-29T12:38:23.537Z,18.52
2022-10-29T12:40:57.018Z,21.58
2022-10-29T12:43:30.444Z,18.05
2022-10-29T12:46:20.117Z,18.55
2022-10-29T12:48:51.642Z,17.17
2022-10-29T12:51:52.434Z,15.85
2022-10-29T12:54:44.250Z,21.20
2022-10-29T12:57:13.834Z,22.27
2022-10-29T12:59:42.535Z,19.52
2022-10-29T13:02:26.476Z,18.95
2022-10-29T13:05:10.816Z,20.60
2022-10-29T13:07:50.449Z,17.23
2022-10-29T13:10:26.365Z,16.13
2022-10-29T13:12:55.683Z,14.82
2022-10-29T13:15:27.826Z,22.83
2022-10-29T13:17:57.569Z,19.35
2022-10-29T13:20:27.942Z,18.35
2022-10-29T13:23:05.361Z,18.88
2022-10-29T13:25:38.655Z,17.33
2022-10-29T13:28:08.669Z,22.27
2022-10-29T13:30:39.621Z,18.35
2022-10-29T13:33:36.612Z,17.08
2022-10-29T13:36:37.379Z,18.13
2022-10-29T13:39:18.390Z,16.53
2022-10-29T13:41:50.967Z,17.15
2022-10-29T13:44:26.146Z,14.20
2022-10-29T13:47:05.026Z,20.75
2022-10-29T13:49:44.689Z,19.38
2022-10-29T13:52:18.452Z,20.23
2022-10-29T13:55:03.050Z,19.52
2022-10-29T13:57:38.319Z,16.83
2022-10-29T14:00:07.125Z,16.95
2022-10-29T14:02:51.546Z,18.83
2022-10-29T14:05:26.251Z,15.55
2022-10-29T14:08:17.077Z,18.08
2022-10-29T14:10:43.782Z,21.02
2022-10-29T14:13:22.081Z,19.85
2022-10-29T14:16:13.334Z,16.55
2022-10-29T14:18:44.664Z,19.77
2022-10-29T14:21:21.885Z,17.88
2022-10-29T14:24:06.742Z,20.10
2022-10-29T14:26:37.663Z,15.73
2022-10-29T14:29:14.799Z,23.95
2022-10-29T14:31:41.526Z,13.93
2022-10-29T14:34:23.826Z,23.83
2022-10-29T14:36:55.224Z,16.92
2022-10-29T14:39:32.566Z,20.13
2022-10-29T14:42:23.539Z,21.02
2022-10-29T14:47:30.474Z,22.65
2022-10-29T14:50:06.596Z,19.27
2022-10-29T14:52:38.321Z,20.63
2022-10-29T14:55:27.761Z,21.55
2022-10-29T14:58:04.360Z,18.08
2022-10-29T15:00:35.748Z,20.13
2022-10-29T15:03:04.315Z,15.80
2022-10-29T15:05:36.026Z,20.25
2022-10-29T15:08:21.830Z,19.67
2022-10-29T15:10:54.001Z,19.65
2022-10-29T15:13:29.601Z,16.85
2022-10-29T15:16:07.347Z,20.33
2022-10-29T15:18:35.816Z,17.15
2022-10-29T15:21:03.744Z,19.83
2022-10-29T15:23:34.312Z,19.15
2022-10-29T15:26:11.431Z,24.70
2022-10-29T15:28:46.399Z,25.48
2022-10-29T15:31:30.626Z,22.20
2022-10-29T15:34:16.059Z,17.52
2022-10-29T15:36:48.390Z,17.48
2022-10-29T15:39:19.977Z,25.08
2022-10-29T15:41:51.507Z,19.15
2022-10-29T15:44:29.574Z,21.10
2022-10-29T15:46:59.364Z,23.10
2022-10-29T15:49:33.110Z,18.40
2022-10-29T15:52:00.848Z,18.17
2022-10-29T15:54:28.621Z,18.90
2022-10-29T15:56:55.692Z,18.45
2022-10-29T15:59:26.789Z,19.45
2022-10-29T16:01:55.984Z,22.02
2022-10-29T16:04:25.562Z,17.05
2022-10-29T16:06:55.049Z,21.10
2022-10-29T16:09:23.938Z,20.33
2022-10-29T16:11:53.426Z,21.70
2022-10-29T16:14:22.316Z,21.85
2022-10-29T16:16:49.167Z,18.25
2022-10-29T16:19:18.352Z,18.33
2022-10-29T16:21:47.333Z,16.50
2022-10-29T16:24:15.537Z,16.38
2022-10-29T16:26:42.471Z,17.83
2022-10-29T16:29:09.417Z,19.67
2022-10-29T16:31:38.584Z,18.48
2022-10-29T16:34:08.602Z,22.52
2022-10-29T16:36:38.043Z,23.63
2022-10-29T16:39:07.433Z,18.40
2022-10-29T16:41:36.731Z,14.77
2022-10-29T16:44:05.694Z,18.95
2022-10-29T16:46:32.658Z,20.80
2022-10-29T16:48:59.391Z,18.70
2022-10-29T16:51:26.195Z,22.15
2022-10-29T16:53:55.843Z,24.05
2022-10-29T16:56:27.185Z,19.73
2022-10-29T17:01:28.844Z,18.88
2022-10-29T17:03:55.619Z,22.25
2022-10-29T17:06:22.610Z,19.52
2022-10-29T17:08:51.536Z,18.23
2022-10-29T17:11:23.488Z,14.80
2022-10-29T17:13:52.461Z,19.58
2022-10-29T17:16:20.447Z,21.73
2022-10-29T17:18:50.710Z,17.33
2022-10-29T17:21:18.209Z,21.52
2022-10-29T17:23:44.898Z,26.58
2022-10-29T17:26:11.987Z,24.95
2022-10-29T17:28:39.576Z,22.38
2022-10-29T17:31:12.076Z,17.45
2022-10-29T17:33:38.845Z,18.77
2022-10-29T17:36:11.253Z,20.70
2022-10-29T17:38:40.308Z,19.90
2022-10-29T17:41:07.517Z,21.80
2022-10-29T17:43:34.456Z,16.08
2022-10-29T17:46:01.277Z,19.02
2022-10-29T17:48:30.440Z,21.00
2022-10-29T17:51:02.513Z,20.85
2022-10-29T17:53:31.931Z,20.02
2022-10-29T17:56:01.885Z,16.45
2022-10-29T17:58:28.783Z,16.42
2022-10-29T18:00:55.625Z,19.75
2022-10-29T18:03:25.708Z,18.50
2022-10-29T18:05:52.428Z,19.17
2022-10-29T18:08:21.312Z,15.75
2022-10-29T18:10:48.025Z,24.80
2022-10-29T18:13:14.706Z,17.40
2022-10-29T18:15:43.957Z,19.75
2022-10-29T18:18:13.346Z,17.45
2022-10-29T18:20:42.203Z,14.55
2022-10-29T18:23:13.553Z,16.42
2022-10-29T18:25:40.300Z,15.32
2022-10-29T18:28:09.439Z,16.88
2022-10-29T18:30:36.193Z,15.82
2022-10-29T18:33:02.984Z,16.38
2022-10-29T18:35:29.789Z,17.67
2022-10-29T18:37:59.837Z,20.98
2022-10-29T18:40:28.995Z,17.20
2022-10-29T18:42:58.133Z,19.55
2022-10-29T18:45:27.450Z,19.83
2022-10-29T18:47:54.580Z,19.83
2022-10-29T18:50:23.820Z,18.30
2022-10-29T18:52:50.524Z,17.77
2022-10-29T18:55:17.390Z,21.92
2022-10-29T18:57:46.729Z,21.25
2022-10-29T19:00:14.120Z,19.83
2022-10-29T19:02:43.172Z,21.98
2022-10-29T19:05:12.378Z,22.33
2022-10-29T19:07:39.269Z,20.15
2022-10-29T19:10:09.079Z,18.75
2022-10-29T19:12:36.901Z,23.98
2022-10-29T19:15:06.176Z,19.02
2022-10-29T19:17:35.576Z,18.63
2022-10-29T19:20:02.656Z,19.42
2022-10-29T19:22:30.901Z,16.65
2022-10-29T19:25:00.360Z,18.50
2022-10-29T19:27:27.167Z,14.43
2022-10-29T19:29:53.909Z,17.52
2022-10-29T19:32:22.938Z,29.45
2022-10-29T19:34:49.705Z,19.60
2022-10-29T19:37:18.785Z,20.65
2022-10-29T19:39:50.164Z,15.23
2022-10-29T19:42:19.627Z,17.00
2022-10-29T19:44:46.311Z,21.48
2022-10-29T19:47:13.140Z,16.70
2022-10-29T19:49:39.822Z,16.08
2022-10-29T19:52:06.539Z,19.67
2022-10-29T19:54:33.839Z,16.83
2022-10-29T19:57:00.786Z,16.23
2022-10-29T19:59:27.545Z,16.63
2022-10-29T20:01:56.807Z,21.38
2022-10-29T20:04:23.741Z,17.15
2022-10-29T20:06:55.202Z,16.92
2022-10-29T20:09:21.919Z,17.65
2022-10-29T20:11:51.008Z,16.55
2022-10-29T20:14:17.807Z,18.38
2022-10-29T20:16:44.737Z,17.65
2022-10-29T20:19:11.783Z,16.38
2022-10-29T20:21:38.473Z,16.85
2022-10-29T20:24:09.720Z,17.25
2022-10-29T20:26:38.855Z,18.27
2022-10-29T20:29:07.834Z,18.13
2022-10-29T20:31:38.593Z,19.60
2022-10-29T20:34:08.873Z,16.92
2022-10-29T20:36:38.347Z,20.08
2022-10-29T20:39:07.277Z,16.55
2022-10-29T20:41:34.046Z,15.23
2022-10-29T20:44:04.093Z,20.88
2022-10-29T20:46:30.973Z,20.52
2022-10-29T20:48:59.981Z,23.00
2022-10-29T20:51:27.220Z,19.83
2022-10-29T20:53:54.584Z,16.67
2022-10-29T20:56:25.225Z,18.40
2022-10-29T20:58:54.102Z,17.33
2022-10-29T21:01:24.103Z,20.95
2022-10-29T21:03:51.486Z,21.02
2022-10-29T21:06:19.208Z,17.60
2022-10-29T21:08:50.981Z,17.30
2022-10-29T21:11:19.140Z,24.02
2022-10-29T21:13:48.808Z,18.90
2022-10-29T21:16:26.393Z,17.27
2022-10-29T21:18:58.425Z,20.77
2022-10-29T21:21:30.007Z,19.55
2022-10-29T21:23:59.931Z,20.25
2022-10-29T21:26:28.140Z,23.05
2022-10-29T21:28:55.646Z,20.85
2022-10-29T21:31:23.017Z,15.57
2022-10-29T21:33:53.435Z,19.13
2022-10-29T21:36:22.938Z,20.38
2022-10-29T21:38:49.865Z,21.23
2022-10-29T21:41:19.123Z,23.60
2022-10-29T21:43:46.168Z,27.50
2022-10-29T21:46:15.834Z,18.30
2022-10-29T21:48:44.772Z,21.50
2022-10-29T21:51:13.298Z,22.15
2022-10-29T21:53:40.274Z,21.10
2022-10-29T21:56:09.971Z,19.38
2022-10-29T21:58:36.689Z,19.63
2022-10-29T22:01:09.153Z,17.33
2022-10-29T22:03:40.657Z,18.08
2022-10-29T22:08:36.817Z,21.13
2022-10-29T22:11:04.202Z,26.00
2022-10-29T22:13:32.446Z,22.92
2022-10-29T22:16:00.026Z,23.48
2022-10-29T22:18:29.918Z,23.00
2022-10-29T22:21:24.052Z,19.75
2022-10-29T22:23:55.954Z,18.25
2022-10-29T22:26:25.288Z,20.73
2022-10-29T22:28:55.258Z,16.90
2022-10-29T22:31:23.447Z,18.27
2022-10-29T22:33:52.583Z,26.30
2022-10-29T22:36:25.040Z,19.45
2022-10-29T22:38:56.089Z,18.85
2022-10-29T22:41:26.985Z,21.23
2022-10-29T22:43:54.840Z,18.15
2022-10-29T22:46:24.621Z,27.80
2022-10-29T22:48:56.453Z,26.60
2022-10-29T22:51:25.447Z,33.75
2022-10-29T22:53:53.693Z,29.52
2022-10-29T22:56:32.259Z,27.42
2022-10-29T22:58:59.029Z,25.63
2022-10-29T23:01:28.466Z,21.63
2022-10-29T23:03:58.284Z,24.75
2022-10-29T23:06:25.454Z,24.08
2022-10-29T23:08:54.061Z,18.38
2022-10-29T23:11:29.570Z,22.98
2022-10-29T23:14:00.939Z,21.83
2022-10-29T23:16:30.270Z,19.48
2022-10-29T23:19:01.250Z,22.00
2022-10-29T23:21:28.978Z,15.25
2022-10-29T23:23:56.158Z,23.65
2022-10-29T23:26:27.095Z,22.60
2022-10-29T23:28:56.048Z,19.10
2022-10-29T23:31:26.324Z,20.92
2022-10-29T23:33:55.077Z,23.08
2022-10-29T23:36:23.901Z,22.75
2022-10-29T23:39:01.223Z,19.85
2022-10-29T23:41:29.332Z,17.80
2022-10-29T23:43:56.770Z,20.30
2022-10-29T23:46:24.163Z,22.73
2022-10-29T23:48:50.893Z,19.15
2022-10-29T23:51:17.991Z,20.17
2022-10-29T23:53:44.718Z,25.05
2022-10-29T23:56:13.691Z,22.23
2022-10-29T23:58:40.407Z,20.25
